createdAt,value
2018-02-24T00:00:42.493Z,32.78
2018-02-24T00:03:10.567Z,26.83
2018-02-24T00:05:38.739Z,29.23
2018-02-24T00:08:06.910Z,23.80
2018-02-24T00:10:34.979Z,26.37
2018-02-24T00:13:02.949Z,34.30
2018-02-24T00:15:31.664Z,29.48
2018-02-24T00:18:00.528Z,29.55
2018-02-24T00:20:28.810Z,30.10
2018-02-24T00:22:56.972Z,27.90
2018-02-24T00:25:25.159Z,31.42
2018-02-24T00:27:53.219Z,27.10
2018-02-24T00:30:21.403Z,35.97
2018-02-24T00:32:49.679Z,31.15
2018-02-24T00:35:17.738Z,25.12
2018-02-24T00:37:45.820Z,29.17
2018-02-24T00:40:14.383Z,41.92
2018-02-24T00:42:42.362Z,29.42
2018-02-24T00:45:10.542Z,29.17
2018-02-24T00:47:40.243Z,26.70
2018-02-24T00:50:08.315Z,32.45
2018-02-24T00:52:36.500Z,23.62
2018-02-24T00:55:04.664Z,25.60
2018-02-24T00:57:32.948Z,31.92
2018-02-24T01:00:01.008Z,22.98
2018-02-24T01:02:29.090Z,23.98
2018-02-24T01:04:57.257Z,23.17
2018-02-24T01:07:25.324Z,26.27
2018-02-24T01:09:53.216Z,24.75
2018-02-24T01:12:22.195Z,26.17
2018-02-24T01:14:50.369Z,29.63
2018-02-24T01:17:18.535Z,26.60
2018-02-24T01:19:46.603Z,25.15
2018-02-24T01:22:14.777Z,26.67
2018-02-24T01:24:42.745Z,31.25
2018-02-24T01:27:10.928Z,28.65
2018-02-24T01:29:39.092Z,28.25
2018-02-24T01:32:07.172Z,27.27
2018-02-24T01:34:35.347Z,31.85
2018-02-24T01:37:03.390Z,30.33
2018-02-24T01:39:31.590Z,29.42
2018-02-24T01:41:59.757Z,35.25
2018-02-24T01:44:28.544Z,31.02
2018-02-24T01:46:56.716Z,28.62
2018-02-24T01:49:24.900Z,32.45
2018-02-24T01:51:53.777Z,31.02
2018-02-24T01:54:21.747Z,34.55
2018-02-24T01:56:50.436Z,33.45
2018-02-24T01:59:18.513Z,32.15
2018-02-24T02:01:46.678Z,36.47
2018-02-24T02:04:14.662Z,33.80
2018-02-24T02:06:42.715Z,29.77
2018-02-24T02:09:10.847Z,32.15
2018-02-24T02:11:38.971Z,35.05
2018-02-24T02:14:07.137Z,35.28
2018-02-24T02:16:35.103Z,33.30
2018-02-24T02:19:03.288Z,34.40
2018-02-24T02:21:31.461Z,37.00
2018-02-24T02:23:59.521Z,38.85
2018-02-24T02:26:27.591Z,35.85
2018-02-24T02:28:55.663Z,34.20
2018-02-24T02:31:23.795Z,31.20
2018-02-24T02:33:51.920Z,30.92
2018-02-24T02:36:20.194Z,34.20
2018-02-24T02:38:48.369Z,35.83
2018-02-24T02:41:16.430Z,32.40
2018-02-24T02:43:44.614Z,33.80
2018-02-24T02:46:14.209Z,30.90
2018-02-24T02:48:42.383Z,32.78
2018-02-24T02:51:10.350Z,28.70
2018-02-24T02:53:38.426Z,37.20
2018-02-24T02:56:06.599Z,31.37
2018-02-24T02:58:34.560Z,31.10
2018-02-24T03:01:02.637Z,27.27
2018-02-24T03:03:30.718Z,40.10
2018-02-24T03:05:58.881Z,34.45
2018-02-24T03:08:27.064Z,37.88
2018-02-24T03:10:55.327Z,33.83
2018-02-24T03:13:23.500Z,36.53
2018-02-24T03:15:51.677Z,35.95
2018-02-24T03:18:19.852Z,42.45
2018-02-24T03:20:47.921Z,37.25
2018-02-24T03:23:16.002Z,33.28
2018-02-24T03:25:44.165Z,39.28
2018-02-24T03:28:12.349Z,36.15
2018-02-24T03:30:40.414Z,38.45
2018-02-24T03:33:08.481Z,38.45
2018-02-24T03:35:36.656Z,35.88
2018-02-24T03:38:04.831Z,36.75
2018-02-24T03:40:32.901Z,41.70
2018-02-24T03:43:01.079Z,35.80
2018-02-24T03:45:29.145Z,43.35
2018-02-24T03:47:57.315Z,37.80
2018-02-24T03:50:26.000Z,36.35
2018-02-24T03:52:54.241Z,39.92
2018-02-24T03:55:22.354Z,41.05
2018-02-24T03:57:51.957Z,36.63
2018-02-24T04:00:20.038Z,39.90
2018-02-24T04:02:48.212Z,43.00
2018-02-24T04:05:16.589Z,43.97
2018-02-24T04:07:45.377Z,40.45
2018-02-24T04:10:13.543Z,40.50
2018-02-24T04:12:41.715Z,32.92
2018-02-24T04:15:09.892Z,36.03
2018-02-24T04:17:38.065Z,37.30
2018-02-24T04:20:05.970Z,33.55
2018-02-24T04:22:33.996Z,46.05
2018-02-24T04:25:02.173Z,36.47
2018-02-24T04:27:30.348Z,33.75
2018-02-24T04:29:58.426Z,35.97
2018-02-24T04:32:26.498Z,41.08
2018-02-24T04:34:54.670Z,36.08
2018-02-24T04:37:22.948Z,35.10
2018-02-24T04:39:51.112Z,29.67
2018-02-24T04:42:19.181Z,32.30
2018-02-24T04:44:47.363Z,29.10
2018-02-24T04:47:15.529Z,37.83
2018-02-24T04:49:43.701Z,35.00
2018-02-24T04:52:11.773Z,35.47
2018-02-24T04:54:39.844Z,34.22
2018-02-24T04:57:07.917Z,38.03
2018-02-24T04:59:35.983Z,40.80
2018-02-24T05:02:04.055Z,35.20
2018-02-24T05:04:32.127Z,42.30
2018-02-24T05:07:00.310Z,41.17
2018-02-24T05:09:28.883Z,35.38
2018-02-24T05:11:57.169Z,44.17
2018-02-24T05:14:26.156Z,39.63
2018-02-24T05:16:54.227Z,33.30
2018-02-24T05:19:22.195Z,35.42
2018-02-24T05:21:50.267Z,33.10
2018-02-24T05:24:19.254Z,37.47
2018-02-24T05:26:47.329Z,37.78
2018-02-24T05:29:15.513Z,31.90
2018-02-24T05:31:43.726Z,36.72
2018-02-24T05:34:11.849Z,39.03
2018-02-24T05:36:39.917Z,40.60
2018-02-24T05:39:07.988Z,39.08
2018-02-24T05:41:36.169Z,39.85
2018-02-24T05:44:04.231Z,40.47
2018-02-24T05:46:32.200Z,29.83
2018-02-24T05:49:00.377Z,34.75
2018-02-24T05:51:28.445Z,36.83
2018-02-24T05:53:56.622Z,39.10
2018-02-24T05:56:24.907Z,31.58
2018-02-24T05:58:53.082Z,37.33
2018-02-24T06:01:21.245Z,35.35
2018-02-24T06:03:49.421Z,33.67
2018-02-24T06:06:17.594Z,37.70
2018-02-24T06:08:45.776Z,43.92
2018-02-24T06:11:13.937Z,38.78
2018-02-24T06:13:42.113Z,42.78
2018-02-24T06:16:10.285Z,46.67
2018-02-24T06:18:38.354Z,54.20
2018-02-24T06:21:06.321Z,73.40
2018-02-24T06:23:34.398Z,54.85
2018-02-24T06:26:02.464Z,159.25
2018-02-24T06:28:30.637Z,133.50
2018-02-24T06:30:58.815Z,89.87
2018-02-24T06:33:26.885Z,195.23
2018-02-24T06:35:54.851Z,83.10
2018-02-24T06:38:23.035Z,86.95
2018-02-24T06:40:51.414Z,44.50
2018-02-24T06:43:19.587Z,46.65
2018-02-24T06:45:48.479Z,51.15
2018-02-24T06:48:16.647Z,44.40
2018-02-24T06:50:44.710Z,86.78
2018-02-24T06:53:12.794Z,97.03
2018-02-24T06:55:41.071Z,131.05
2018-02-24T06:58:09.233Z,69.35
2018-02-24T07:00:37.302Z,57.28
2018-02-24T07:03:05.480Z,44.85
2018-02-24T07:05:33.547Z,44.70
2018-02-24T07:08:01.620Z,42.92
2018-02-24T07:10:29.794Z,38.92
2018-02-24T07:12:57.979Z,34.08
2018-02-24T07:15:26.143Z,40.90
2018-02-24T07:17:54.311Z,39.55
2018-02-24T07:20:22.382Z,38.45
2018-02-24T07:22:50.467Z,43.13
2018-02-24T07:25:19.349Z,38.95
2018-02-24T07:27:48.132Z,42.00
2018-02-24T07:30:16.317Z,38.53
2018-02-24T07:32:44.481Z,40.40
2018-02-24T07:35:12.664Z,35.35
2018-02-24T07:37:40.829Z,39.30
2018-02-24T07:40:08.820Z,38.47
2018-02-24T07:42:37.799Z,33.33
2018-02-24T07:45:05.964Z,35.88
2018-02-24T07:47:34.751Z,47.92
2018-02-24T07:50:02.819Z,34.33
2018-02-24T07:52:30.902Z,28.73
2018-02-24T07:54:59.070Z,31.60
2018-02-24T07:57:27.135Z,31.52
2018-02-24T07:59:55.205Z,29.40
2018-02-24T08:02:23.385Z,34.33
2018-02-24T08:04:51.557Z,29.33
2018-02-24T08:07:19.739Z,31.67
2018-02-24T08:09:48.628Z,32.55
2018-02-24T08:12:16.801Z,31.05
2018-02-24T08:14:44.963Z,125.60
2018-02-24T08:17:13.859Z,51.40
2018-02-24T08:19:42.641Z,36.30
2018-02-24T08:22:10.718Z,37.20
2018-02-24T08:24:38.749Z,35.53
2018-02-24T08:27:07.485Z,34.70
2018-02-24T08:29:35.641Z,35.80
2018-02-24T08:32:03.725Z,34.78
2018-02-24T08:34:32.410Z,35.63
2018-02-24T08:37:00.483Z,28.73
2018-02-24T08:39:28.541Z,38.67
2018-02-24T08:41:57.227Z,30.88
2018-02-24T08:44:25.412Z,28.60
2018-02-24T08:46:53.572Z,38.67
2018-02-24T08:49:21.746Z,31.08
2018-02-24T08:51:49.829Z,34.10
2018-02-24T08:54:17.893Z,33.45
2018-02-24T08:56:46.882Z,32.20
2018-02-24T08:59:15.060Z,29.87
2018-02-24T09:01:43.137Z,24.12
2018-02-24T09:04:11.203Z,27.02
2018-02-24T09:06:39.383Z,35.63
2018-02-24T09:09:07.556Z,28.65
2018-02-24T09:11:35.728Z,32.50
2018-02-24T09:14:04.005Z,25.95
2018-02-24T09:16:32.063Z,26.20
2018-02-24T09:19:00.751Z,32.10
2018-02-24T09:21:28.928Z,26.12
2018-02-24T09:23:56.995Z,30.20
2018-02-24T09:26:25.065Z,28.70
2018-02-24T09:28:53.137Z,24.90
2018-02-24T09:31:21.424Z,29.08
2018-02-24T09:33:49.591Z,29.35
2018-02-24T09:36:17.660Z,26.50
2018-02-24T09:38:45.627Z,27.70
2018-02-24T09:41:13.697Z,26.67
2018-02-24T09:43:42.487Z,26.60
2018-02-24T09:46:10.514Z,25.25
2018-02-24T09:48:38.741Z,20.95
2018-02-24T09:51:07.019Z,23.05
2018-02-24T09:53:35.190Z,25.75
2018-02-24T09:56:03.250Z,27.67
2018-02-24T09:58:31.424Z,25.95
2018-02-24T10:01:00.931Z,26.58
2018-02-24T10:03:28.601Z,26.33
2018-02-24T10:05:56.673Z,26.08
2018-02-24T10:08:24.836Z,31.42
2018-02-24T10:10:52.904Z,23.02
2018-02-24T10:13:20.988Z,22.42
2018-02-24T10:15:49.047Z,25.17
2018-02-24T10:18:17.231Z,29.27
2018-02-24T10:20:45.289Z,25.00
2018-02-24T10:23:13.374Z,25.27
2018-02-24T10:25:41.538Z,23.30
2018-02-24T10:28:09.619Z,26.17
2018-02-24T10:30:37.681Z,22.05
2018-02-24T10:33:05.762Z,27.90
2018-02-24T10:35:34.447Z,23.48
2018-02-24T10:38:02.506Z,27.58
2018-02-24T10:40:31.510Z,24.05
2018-02-24T10:42:59.676Z,24.27
2018-02-24T10:45:27.754Z,23.25
2018-02-24T10:47:58.556Z,25.37
2018-02-24T10:50:26.652Z,25.15
2018-02-24T10:52:54.835Z,28.87
2018-02-24T10:55:23.622Z,27.65
2018-02-24T10:57:52.399Z,21.27
2018-02-24T11:00:20.473Z,30.83
2018-02-24T11:02:48.541Z,24.05
2018-02-24T11:05:16.616Z,29.40
2018-02-24T11:07:44.695Z,22.60
2018-02-24T11:10:12.857Z,23.08
2018-02-24T11:12:41.030Z,22.03
2018-02-24T11:15:09.318Z,22.20
2018-02-24T11:20:12.423Z,22.23
2018-02-24T11:22:40.587Z,23.30
2018-02-24T11:25:08.771Z,25.57
2018-02-24T11:27:36.834Z,24.50
2018-02-24T11:30:05.723Z,21.37
2018-02-24T11:32:33.802Z,20.20
2018-02-24T11:35:01.975Z,17.97
2018-02-24T11:37:30.149Z,26.80
2018-02-24T11:39:58.313Z,20.17
2018-02-24T11:42:27.212Z,36.73
2018-02-24T11:44:55.276Z,23.53
2018-02-24T11:47:23.240Z,22.77
2018-02-24T11:49:51.419Z,25.50
2018-02-24T11:52:22.001Z,21.00
2018-02-24T11:54:50.014Z,24.17
2018-02-24T11:57:18.187Z,23.90
2018-02-24T11:59:46.156Z,23.90
2018-02-24T12:02:14.334Z,24.73
2018-02-24T12:04:42.508Z,24.77
2018-02-24T12:07:10.688Z,24.00
2018-02-24T12:09:38.854Z,21.77
2018-02-24T12:12:07.024Z,25.40
2018-02-24T12:14:35.918Z,26.43
2018-02-24T12:17:04.089Z,26.33
2018-02-24T12:19:34.825Z,27.90
2018-02-24T12:22:14.729Z,25.53
2018-02-24T12:24:54.293Z,24.90
2018-02-24T12:27:22.278Z,25.00
2018-02-24T12:29:50.361Z,28.10
2018-02-24T12:32:18.421Z,23.73
2018-02-24T12:34:47.119Z,22.73
2018-02-24T12:37:16.000Z,26.23
2018-02-24T12:39:45.502Z,28.60
2018-02-24T12:42:13.674Z,26.10
2018-02-24T12:44:41.758Z,26.30
2018-02-24T12:47:10.024Z,25.60
2018-02-24T12:49:38.263Z,26.52
2018-02-24T12:52:06.573Z,24.33
2018-02-24T12:54:34.644Z,25.63
2018-02-24T12:57:02.919Z,33.53
2018-02-24T12:59:30.990Z,30.58
2018-02-24T13:01:59.789Z,32.72
2018-02-24T13:04:27.957Z,29.25
2018-02-24T13:06:55.871Z,28.67
2018-02-24T13:09:23.889Z,37.90
2018-02-24T13:12:00.334Z,34.08
2018-02-24T13:14:28.646Z,34.75
2018-02-24T13:16:58.559Z,34.78
2018-02-24T13:19:27.142Z,36.83
2018-02-24T13:21:55.202Z,35.22
2018-02-24T13:24:23.437Z,40.78
2018-02-24T13:26:52.584Z,39.70
2018-02-24T13:29:23.414Z,37.92
2018-02-24T13:31:53.015Z,42.58
2018-02-24T13:34:21.201Z,41.45
2018-02-24T13:36:49.471Z,46.83
2018-02-24T13:39:18.402Z,38.10
2018-02-24T13:41:46.540Z,34.88
2018-02-24T13:44:14.816Z,34.95
2018-02-24T13:46:42.745Z,40.50
2018-02-24T13:49:10.742Z,36.80
2018-02-24T13:51:40.463Z,36.08
2018-02-24T13:54:08.631Z,37.22
2018-02-24T13:56:39.472Z,35.15
2018-02-24T13:59:07.646Z,34.80
2018-02-24T14:01:35.922Z,41.35
2018-02-24T14:04:04.089Z,31.67
2018-02-24T14:06:32.768Z,34.63
2018-02-24T14:09:00.957Z,34.28
2018-02-24T14:11:29.116Z,32.35
2018-02-24T14:13:57.190Z,38.63
2018-02-24T14:16:25.361Z,37.53
2018-02-24T14:18:54.365Z,31.37
2018-02-24T14:21:23.357Z,32.45
2018-02-24T14:23:51.416Z,38.65
2018-02-24T14:26:19.588Z,40.42
2018-02-24T14:28:47.775Z,36.45
2018-02-24T14:31:16.451Z,35.22
2018-02-24T14:33:44.623Z,37.05
2018-02-24T14:36:12.801Z,32.58
2018-02-24T14:38:40.982Z,30.42
2018-02-24T14:41:09.258Z,40.60
2018-02-24T14:43:37.316Z,37.20
2018-02-24T14:46:05.496Z,34.78
2018-02-24T14:48:33.676Z,35.55
2018-02-24T14:51:01.836Z,34.03
2018-02-24T14:53:30.364Z,33.92
2018-02-24T14:55:58.496Z,30.85
2018-02-24T14:58:26.677Z,38.53
2018-02-24T15:00:54.844Z,40.47
2018-02-24T15:03:23.015Z,75.18
2018-02-24T15:05:51.187Z,115.90
2018-02-24T15:08:19.270Z,91.15
2018-02-24T15:10:47.327Z,44.95
2018-02-24T15:13:15.410Z,33.30
2018-02-24T15:15:43.584Z,38.67
2018-02-24T15:18:11.751Z,34.17
2018-02-24T15:20:39.923Z,35.55
2018-02-24T15:23:08.104Z,36.28
2018-02-24T15:25:36.175Z,37.35
2018-02-24T15:28:04.443Z,27.83
2018-02-24T15:30:33.366Z,39.53
2018-02-24T15:33:02.333Z,39.35
2018-02-24T15:35:30.393Z,38.58
2018-02-24T15:37:58.464Z,29.90
2018-02-24T15:40:27.366Z,37.35
2018-02-24T15:42:55.551Z,33.42
2018-02-24T15:45:24.420Z,34.47
2018-02-24T15:47:52.596Z,40.55
2018-02-24T15:50:20.777Z,38.00
2018-02-24T15:52:48.943Z,40.95
2018-02-24T15:55:17.133Z,35.88
2018-02-24T15:57:46.217Z,45.45
2018-02-24T16:00:14.277Z,44.72
2018-02-24T16:02:42.457Z,46.20
2018-02-24T16:05:10.636Z,41.15
2018-02-24T16:07:38.798Z,39.33
2018-02-24T16:10:06.983Z,41.58
2018-02-24T16:12:35.261Z,44.42
2018-02-24T16:15:03.423Z,57.55
2018-02-24T16:17:31.593Z,37.92
2018-02-24T16:19:59.779Z,105.72
2018-02-24T16:22:27.941Z,43.03
2018-02-24T16:24:56.027Z,67.87
2018-02-24T16:27:24.299Z,43.67
2018-02-24T16:29:52.576Z,42.85
2018-02-24T16:32:20.843Z,42.20
2018-02-24T16:34:48.910Z,57.60
2018-02-24T16:37:16.994Z,45.83
2018-02-24T16:39:45.058Z,48.33
2018-02-24T16:42:13.154Z,40.63
2018-02-24T16:44:41.413Z,41.97
2018-02-24T16:47:09.575Z,44.38
2018-02-24T16:49:37.749Z,39.60
2018-02-24T16:52:05.932Z,37.00
2018-02-24T16:54:34.811Z,43.42
2018-02-24T16:57:02.983Z,37.72
2018-02-24T16:59:31.067Z,44.45
2018-02-24T17:01:59.241Z,36.20
2018-02-24T17:04:27.414Z,39.80
2018-02-24T17:06:55.578Z,40.20
2018-02-24T17:09:23.862Z,41.28
2018-02-24T17:11:52.127Z,38.83
2018-02-24T17:14:20.620Z,40.50
2018-02-24T17:16:48.786Z,42.05
2018-02-24T17:19:16.865Z,47.00
2018-02-24T17:21:45.133Z,44.72
2018-02-24T17:24:13.305Z,41.00
2018-02-24T17:26:43.119Z,38.42
2018-02-24T17:29:11.402Z,45.75
2018-02-24T17:31:39.563Z,42.92
2018-02-24T17:34:07.634Z,57.78
2018-02-24T17:36:36.727Z,48.70
2018-02-24T17:39:05.005Z,48.58
2018-02-24T17:41:33.796Z,37.55
2018-02-24T17:44:01.992Z,43.17
2018-02-24T17:46:30.960Z,40.10
2018-02-24T17:48:59.674Z,43.85
2018-02-24T17:51:28.534Z,45.55
2018-02-24T17:53:58.476Z,41.55
2018-02-24T17:56:27.201Z,37.60
2018-02-24T17:58:55.307Z,41.88
2018-02-24T18:01:23.494Z,43.08
2018-02-24T18:03:51.492Z,40.10
2018-02-24T18:06:20.547Z,49.30
2018-02-24T18:08:48.616Z,46.15
2018-02-24T18:11:16.894Z,41.92
2018-02-24T18:13:44.966Z,41.85
2018-02-24T18:16:13.150Z,45.45
2018-02-24T18:18:41.310Z,50.53
2018-02-24T18:21:09.485Z,50.42
2018-02-24T18:23:38.993Z,50.47
2018-02-24T18:26:07.166Z,44.88
2018-02-24T18:28:35.744Z,48.80
2018-02-24T18:31:03.968Z,52.65
2018-02-24T18:33:32.192Z,57.72
2018-02-24T18:36:00.481Z,53.13
2018-02-24T18:38:28.655Z,53.87
2018-02-24T18:40:56.829Z,59.35
2018-02-24T18:43:24.887Z,50.70
2018-02-24T18:45:53.065Z,45.70
2018-02-24T18:48:21.234Z,49.13
2018-02-24T18:50:50.034Z,43.28
2018-02-24T18:53:18.092Z,50.42
2018-02-24T18:55:46.381Z,47.72
2018-02-24T18:58:14.556Z,49.95
2018-02-24T19:00:42.613Z,54.50
2018-02-24T19:03:11.194Z,44.60
2018-02-24T19:05:39.476Z,52.25
2018-02-24T19:08:07.647Z,43.58
2018-02-24T19:10:35.824Z,44.15
2018-02-24T19:13:03.900Z,51.83
2018-02-24T19:15:32.064Z,42.53
2018-02-24T19:18:00.135Z,52.75
2018-02-24T19:20:28.425Z,62.22
2018-02-24T19:22:56.580Z,50.00
2018-02-24T19:25:25.078Z,55.55
2018-02-24T19:27:53.654Z,50.55
2018-02-24T19:30:22.042Z,49.58
2018-02-24T19:32:50.233Z,56.95
2018-02-24T19:35:19.096Z,50.80
2018-02-24T19:37:47.075Z,56.17
2018-02-24T19:40:15.130Z,53.45
2018-02-24T19:42:44.122Z,53.35
2018-02-24T19:45:12.195Z,51.17
2018-02-24T19:47:40.379Z,50.63
2018-02-24T19:50:08.541Z,49.08
2018-02-24T19:52:37.021Z,60.35
2018-02-24T19:55:06.030Z,47.30
2018-02-24T19:57:37.342Z,47.05
2018-02-24T20:00:07.800Z,43.40
2018-02-24T20:02:35.866Z,48.47
2018-02-24T20:05:03.997Z,55.67
2018-02-24T20:07:32.372Z,49.95
2018-02-24T20:10:00.494Z,51.58
2018-02-24T20:12:28.450Z,44.15
2018-02-24T20:14:56.535Z,45.95
2018-02-24T20:17:25.220Z,55.75
2018-02-24T20:19:55.019Z,51.40
2018-02-24T20:22:25.970Z,69.62
2018-02-24T20:24:54.028Z,58.25
2018-02-24T20:27:25.275Z,57.03
2018-02-24T20:29:53.459Z,60.42
2018-02-24T20:32:21.632Z,60.67
2018-02-24T20:34:49.692Z,53.00
2018-02-24T20:37:18.800Z,62.90
2018-02-24T20:39:46.860Z,57.25
2018-02-24T20:42:15.849Z,61.75
2018-02-24T20:44:44.035Z,71.32
2018-02-24T20:47:12.196Z,59.22
2018-02-24T20:49:40.370Z,55.45
2018-02-24T20:52:08.659Z,54.35
2018-02-24T20:54:36.822Z,63.55
2018-02-24T20:57:05.005Z,59.58
2018-02-24T20:59:34.195Z,57.08
2018-02-24T21:02:02.268Z,52.65
2018-02-24T21:04:30.342Z,61.30
2018-02-24T21:06:58.724Z,58.55
2018-02-24T21:09:26.890Z,56.67
2018-02-24T21:11:55.053Z,56.15
2018-02-24T21:14:23.232Z,62.97
2018-02-24T21:16:51.502Z,60.60
2018-02-24T21:19:19.584Z,55.83
2018-02-24T21:21:47.757Z,55.53
2018-02-24T21:24:15.938Z,59.63
2018-02-24T21:26:44.876Z,54.67
2018-02-24T21:29:12.887Z,54.72
2018-02-24T21:31:40.970Z,59.30
2018-02-24T21:34:09.033Z,50.70
2018-02-24T21:36:37.101Z,61.42
2018-02-24T21:39:05.286Z,55.17
2018-02-24T21:41:33.479Z,65.28
2018-02-24T21:44:02.342Z,54.33
2018-02-24T21:46:31.130Z,60.75
2018-02-24T21:49:00.029Z,55.72
2018-02-24T21:51:28.720Z,53.28
2018-02-24T21:53:57.596Z,51.95
2018-02-24T21:56:25.765Z,61.28
2018-02-24T21:58:54.147Z,56.10
2018-02-24T22:01:24.884Z,53.63
2018-02-24T22:03:52.947Z,52.30
2018-02-24T22:06:21.030Z,54.92
2018-02-24T22:08:49.197Z,58.17
2018-02-24T22:11:17.368Z,53.28
2018-02-24T22:13:45.440Z,60.58
2018-02-24T22:16:14.440Z,70.05
2018-02-24T22:18:43.224Z,58.50
2018-02-24T22:21:11.189Z,54.70
2018-02-24T22:23:39.371Z,45.42
2018-02-24T22:26:07.430Z,58.53
2018-02-24T22:28:35.606Z,54.63
2018-02-24T22:31:03.777Z,60.97
2018-02-24T22:33:31.967Z,57.80
2018-02-24T22:36:00.238Z,61.60
2018-02-24T22:38:28.413Z,53.53
2018-02-24T22:40:56.582Z,56.10
2018-02-24T22:43:24.542Z,64.40
2018-02-24T22:45:53.333Z,70.60
2018-02-24T22:48:28.479Z,65.37
2018-02-24T22:50:56.645Z,70.95
2018-02-24T22:53:24.819Z,62.53
2018-02-24T22:55:53.066Z,67.85
2018-02-24T22:58:21.163Z,70.12
2018-02-24T23:00:49.338Z,64.82
2018-02-24T23:03:17.510Z,69.40
2018-02-24T23:05:46.307Z,63.22
2018-02-24T23:08:14.370Z,60.17
2018-02-24T23:10:42.551Z,60.78
2018-02-24T23:13:10.611Z,64.85
2018-02-24T23:15:38.686Z,66.55
2018-02-24T23:18:06.753Z,63.47
2018-02-24T23:20:34.930Z,67.20
2018-02-24T23:23:02.997Z,58.53
2018-02-24T23:25:31.067Z,69.68
2018-02-24T23:27:59.251Z,71.47
2018-02-24T23:30:27.313Z,68.37
2018-02-24T23:32:55.280Z,74.65
2018-02-24T23:35:23.250Z,70.53
2018-02-24T23:37:51.429Z,71.30
2018-02-24T23:40:20.532Z,79.00
2018-02-24T23:42:51.095Z,78.70
2018-02-24T23:45:19.334Z,73.90
2018-02-24T23:47:48.531Z,78.97
2018-02-24T23:50:16.706Z,75.62
2018-02-24T23:52:44.872Z,88.35
2018-02-24T23:55:12.938Z,77.90
2018-02-24T23:57:41.118Z,83.00
